DFFD/OUA METAR and TAF weather

Enter ICAO airport designator
Station Type Date Time Source
DFFD METAR 2018/12/10 18:00 UTC NOAA

DFFD 101800Z 04004KT 6000 NSC 28/07 Q1014 TEMPO 4000 HZ


Station Type Date Time Source
DFFD Decoded METAR 2018/12/10 18:00 UTC NOAA

Ouagadougou, Burkina Faso (DFFD) 12-21N 001-31W 306M
Dec 10, 2018 - 01:00 PM EST / 2018.12.10 1800 UTC
Wind: from the NE (040 degrees) at 5 MPH (4 KT):0
Visibility: 3 mile(s):0
Temperature: 82 F (28 C)
Dew Point: 44 F (7 C)
Relative Humidity: 26%
Pressure (altimeter): 29.94 in. Hg (1014 hPa)
ob: DFFD 101800Z 04004KT 6000 NSC 28/07 Q1014 TEMPO 4000 HZ
cycle: 18

Station Type Date Time Source
DFFD TAF 2018/12/10 18:21 UTC NOAA

TAF TAF DFFD 101700Z 1018/1124 04008KT 8000 NSC
TEMPO 1106/1110 4000 HZ


Example: see airport list